sensor_id;sensor_type;location;lat;lon;timestamp;pressure;altitude;pressure_sealevel;temperature;humidity
17785;BME280;9016;53.582;10.062;2024-02-23T00:01:30;97825.69;;;11.63;60.95
17785;BME280;9016;53.582;10.062;2024-02-23T00:04:01;97822.69;;;11.58;60.99
17785;BME280;9016;53.582;10.062;2024-02-23T00:06:30;97840.53;;;11.66;61.12
17785;BME280;9016;53.582;10.062;2024-02-23T00:09:03;97822.34;;;11.69;61.19
17785;BME280;9016;53.582;10.062;2024-02-23T00:11:35;97838.19;;;11.63;61.50
17785;BME280;9016;53.582;10.062;2024-02-23T00:14:10;97841.19;;;11.52;62.06
17785;BME280;9016;53.582;10.062;2024-02-23T00:16:38;97852.53;;;11.54;62.91
17785;BME280;9016;53.582;10.062;2024-02-23T00:19:08;97858.84;;;11.53;63.29
17785;BME280;9016;53.582;10.062;2024-02-23T00:21:37;97855.53;;;11.35;63.97
17785;BME280;9016;53.582;10.062;2024-02-23T00:24:07;97872.69;;;11.16;64.31
17785;BME280;9016;53.582;10.062;2024-02-23T00:26:35;97883.84;;;11.20;64.57
17785;BME280;9016;53.582;10.062;2024-02-23T00:29:03;97871.88;;;11.24;65.45
17785;BME280;9016;53.582;10.062;2024-02-23T00:31:31;97867.53;;;11.15;63.63
17785;BME280;9016;53.582;10.062;2024-02-23T00:34:00;97877.34;;;11.14;63.19
17785;BME280;9016;53.582;10.062;2024-02-23T00:36:27;97869.53;;;11.05;62.73
17785;BME280;9016;53.582;10.062;2024-02-23T00:38:55;97869.69;;;11.11;62.28
17785;BME280;9016;53.582;10.062;2024-02-23T00:41:25;97866.22;;;11.03;61.72
17785;BME280;9016;53.582;10.062;2024-02-23T00:43:53;97872.19;;;10.96;61.03
17785;BME280;9016;53.582;10.062;2024-02-23T00:46:21;97867.84;;;11.04;61.51
17785;BME280;9016;53.582;10.062;2024-02-23T00:48:49;97888.53;;;11.10;61.37
17785;BME280;9016;53.582;10.062;2024-02-23T00:51:17;97922.47;;;11.08;61.67
17785;BME280;9016;53.582;10.062;2024-02-23T00:53:45;97930.16;;;10.61;67.68
17785;BME280;9016;53.582;10.062;2024-02-23T00:56:13;97977.19;;;10.44;69.57
17785;BME280;9016;53.582;10.062;2024-02-23T00:58:43;98009.97;;;10.19;73.66
17785;BME280;9016;53.582;10.062;2024-02-23T01:01:11;98020.91;;;9.73;75.37
17785;BME280;9016;53.582;10.062;2024-02-23T01:03:38;97995.31;;;9.37;76.98
17785;BME280;9016;53.582;10.062;2024-02-23T01:06:07;98020.41;;;9.07;77.51
17785;BME280;9016;53.582;10.062;2024-02-23T01:08:35;98023.34;;;9.04;77.28
17785;BME280;9016;53.582;10.062;2024-02-23T01:11:03;98021.63;;;9.13;78.48
17785;BME280;9016;53.582;10.062;2024-02-23T01:13:31;98038.50;;;9.21;77.95
17785;BME280;9016;53.582;10.062;2024-02-23T01:16:00;98037.41;;;9.14;77.73
17785;BME280;9016;53.582;10.062;2024-02-23T01:18:29;98046.78;;;9.18;77.49
17785;BME280;9016;53.582;10.062;2024-02-23T01:20:57;98067.41;;;9.24;77.56
17785;BME280;9016;53.582;10.062;2024-02-23T01:23:28;98059.31;;;9.26;77.27
17785;BME280;9016;53.582;10.062;2024-02-23T01:25:58;98078.03;;;9.24;76.64
17785;BME280;9016;53.582;10.062;2024-02-23T01:28:26;98087.72;;;9.16;77.06
17785;BME280;9016;53.582;10.062;2024-02-23T01:30:55;98092.56;;;9.02;77.63
17785;BME280;9016;53.582;10.062;2024-02-23T01:33:24;98096.59;;;9.07;77.88
17785;BME280;9016;53.582;10.062;2024-02-23T01:35:52;98101.66;;;9.00;78.18
17785;BME280;9016;53.582;10.062;2024-02-23T01:38:21;98107.09;;;8.98;77.73
17785;BME280;9016;53.582;10.062;2024-02-23T01:40:52;98130.41;;;9.05;78.29
17785;BME280;9016;53.582;10.062;2024-02-23T01:43:24;98126.53;;;8.99;78.35
17785;BME280;9016;53.582;10.062;2024-02-23T01:45:56;98131.31;;;8.95;77.89
17785;BME280;9016;53.582;10.062;2024-02-23T01:48:26;98149.59;;;8.98;77.60
17785;BME280;9016;53.582;10.062;2024-02-23T01:50:55;98155.72;;;9.09;77.58
17785;BME280;9016;53.582;10.062;2024-02-23T01:53:24;98165.47;;;9.18;76.69
17785;BME280;9016;53.582;10.062;2024-02-23T01:55:54;98177.38;;;9.04;76.91
17785;BME280;9016;53.582;10.062;2024-02-23T01:58:22;98178.09;;;9.06;76.99
17785;BME280;9016;53.582;10.062;2024-02-23T02:00:50;98188.28;;;9.11;76.18
17785;BME280;9016;53.582;10.062;2024-02-23T02:03:28;98217.66;;;8.99;76.43
17785;BME280;9016;53.582;10.062;2024-02-23T02:05:57;98232.63;;;8.91;75.44
17785;BME280;9016;53.582;10.062;2024-02-23T02:08:28;98239.47;;;8.93;74.26
17785;BME280;9016;53.582;10.062;2024-02-23T02:10:57;98249.41;;;8.91;73.69
17785;BME280;9016;53.582;10.062;2024-02-23T02:13:25;98261.03;;;8.90;73.08
17785;BME280;9016;53.582;10.062;2024-02-23T02:16:01;98272.75;;;8.97;73.11
17785;BME280;9016;53.582;10.062;2024-02-23T02:18:31;98287.81;;;8.97;72.94
17785;BME280;9016;53.582;10.062;2024-02-23T02:20:58;98295.25;;;8.93;72.98
17785;BME280;9016;53.582;10.062;2024-02-23T02:23:29;98294.69;;;8.90;72.39
17785;BME280;9016;53.582;10.062;2024-02-23T02:25:58;98298.59;;;8.86;72.90
17785;BME280;9016;53.582;10.062;2024-02-23T02:28:26;98315.38;;;8.96;72.28
17785;BME280;9016;53.582;10.062;2024-02-23T02:30:54;98317.19;;;8.95;72.42
17785;BME280;9016;53.582;10.062;2024-02-23T02:33:25;98309.22;;;8.76;72.54
17785;BME280;9016;53.582;10.062;2024-02-23T02:35:58;98326.81;;;8.49;74.27
17785;BME280;9016;53.582;10.062;2024-02-23T02:38:27;98327.25;;;8.54;75.33
17785;BME280;9016;53.582;10.062;2024-02-23T02:40:58;98347.34;;;8.56;74.35
17785;BME280;9016;53.582;10.062;2024-02-23T02:43:27;98339.00;;;8.61;73.24
17785;BME280;9016;53.582;10.062;2024-02-23T02:45:55;98362.88;;;8.61;74.46
17785;BME280;9016;53.582;10.062;2024-02-23T02:48:23;98380.09;;;8.76;73.86
17785;BME280;9016;53.582;10.062;2024-02-23T02:50:51;98386.34;;;8.65;73.92
17785;BME280;9016;53.582;10.062;2024-02-23T02:53:21;98389.13;;;8.64;74.25
17785;BME280;9016;53.582;10.062;2024-02-23T02:55:49;98401.56;;;8.54;76.05
17785;BME280;9016;53.582;10.062;2024-02-23T02:58:17;98399.03;;;8.52;76.19
17785;BME280;9016;53.582;10.062;2024-02-23T03:00:45;98415.78;;;8.53;76.20
17785;BME280;9016;53.582;10.062;2024-02-23T03:03:13;98419.28;;;8.53;75.45
17785;BME280;9016;53.582;10.062;2024-02-23T03:05:41;98437.69;;;8.45;76.22
17785;BME280;9016;53.582;10.062;2024-02-23T03:08:09;98445.06;;;8.32;75.64
17785;BME280;9016;53.582;10.062;2024-02-23T03:10:38;98442.81;;;8.28;76.15
17785;BME280;9016;53.582;10.062;2024-02-23T03:13:06;98447.72;;;8.12;76.28
17785;BME280;9016;53.582;10.062;2024-02-23T03:15:34;98464.84;;;8.28;75.75
17785;BME280;9016;53.582;10.062;2024-02-23T03:18:02;98469.84;;;8.22;75.69
17785;BME280;9016;53.582;10.062;2024-02-23T03:20:30;98472.00;;;8.28;75.02
17785;BME280;9016;53.582;10.062;2024-02-23T03:22:58;98477.88;;;8.31;74.96
17785;BME280;9016;53.582;10.062;2024-02-23T03:25:26;98482.53;;;8.18;74.77
17785;BME280;9016;53.582;10.062;2024-02-23T03:27:55;98482.97;;;8.23;74.92
17785;BME280;9016;53.582;10.062;2024-02-23T03:30:23;98482.84;;;8.25;74.36
17785;BME280;9016;53.582;10.062;2024-02-23T03:32:50;98504.19;;;8.02;74.88
17785;BME280;9016;53.582;10.062;2024-02-23T03:35:18;98492.78;;;8.02;73.68
17785;BME280;9016;53.582;10.062;2024-02-23T03:37:46;98491.72;;;7.93;73.63
17785;BME280;9016;53.582;10.062;2024-02-23T03:40:14;98509.13;;;7.86;74.57
17785;BME280;9016;53.582;10.062;2024-02-23T03:42:44;98512.19;;;7.82;73.93
17785;BME280;9016;53.582;10.062;2024-02-23T03:45:14;98513.00;;;7.82;74.08
17785;BME280;9016;53.582;10.062;2024-02-23T03:47:41;98518.25;;;7.93;73.99
17785;BME280;9016;53.582;10.062;2024-02-23T03:50:10;98510.84;;;7.87;73.59
17785;BME280;9016;53.582;10.062;2024-02-23T03:52:38;98515.09;;;7.79;73.76
17785;BME280;9016;53.582;10.062;2024-02-23T03:55:06;98531.91;;;7.89;74.19
17785;BME280;9016;53.582;10.062;2024-02-23T03:57:34;98525.03;;;7.86;74.05
17785;BME280;9016;53.582;10.062;2024-02-23T04:00:03;98531.78;;;7.90;74.24
17785;BME280;9016;53.582;10.062;2024-02-23T04:02:34;98535.50;;;7.88;73.59
17785;BME280;9016;53.582;10.062;2024-02-23T04:05:02;98538.84;;;7.69;73.75
17785;BME280;9016;53.582;10.062;2024-02-23T04:07:30;98560.97;;;7.59;73.44
17785;BME280;9016;53.582;10.062;2024-02-23T04:09:59;98552.78;;;7.51;73.50
17785;BME280;9016;53.582;10.062;2024-02-23T04:12:27;98561.97;;;7.47;73.85
17785;BME280;9016;53.582;10.062;2024-02-23T04:14:55;98568.31;;;7.55;73.08
17785;BME280;9016;53.582;10.062;2024-02-23T04:17:23;98573.72;;;7.65;73.06
17785;BME280;9016;53.582;10.062;2024-02-23T04:19:52;98584.06;;;7.68;72.77
17785;BME280;9016;53.582;10.062;2024-02-23T04:22:20;98595.19;;;7.51;73.24
17785;BME280;9016;53.582;10.062;2024-02-23T04:24:48;98599.28;;;7.55;73.29
17785;BME280;9016;53.582;10.062;2024-02-23T04:27:16;98603.25;;;7.49;72.97
17785;BME280;9016;53.582;10.062;2024-02-23T04:29:44;98600.13;;;7.55;73.63
17785;BME280;9016;53.582;10.062;2024-02-23T04:32:11;98599.78;;;7.49;73.34
17785;BME280;9016;53.582;10.062;2024-02-23T04:34:39;98617.69;;;7.56;73.11
17785;BME280;9016;53.582;10.062;2024-02-23T04:37:09;98622.84;;;7.69;73.32
17785;BME280;9016;53.582;10.062;2024-02-23T04:39:37;98625.59;;;7.67;73.03
17785;BME280;9016;53.582;10.062;2024-02-23T04:42:08;98628.66;;;7.63;72.50
17785;BME280;9016;53.582;10.062;2024-02-23T04:44:36;98633.69;;;7.66;73.19
17785;BME280;9016;53.582;10.062;2024-02-23T04:47:04;98635.13;;;7.70;72.66
17785;BME280;9016;53.582;10.062;2024-02-23T04:49:32;98631.56;;;7.60;73.21
17785;BME280;9016;53.582;10.062;2024-02-23T04:52:00;98640.91;;;7.64;73.46
17785;BME280;9016;53.582;10.062;2024-02-23T04:54:30;98638.53;;;7.61;74.07
17785;BME280;9016;53.582;10.062;2024-02-23T04:56:58;98649.28;;;7.48;73.75
17785;BME280;9016;53.582;10.062;2024-02-23T04:59:26;98653.50;;;7.40;73.99
17785;BME280;9016;53.582;10.062;2024-02-23T05:01:54;98652.53;;;7.52;74.11
17785;BME280;9016;53.582;10.062;2024-02-23T05:04:22;98655.91;;;7.54;74.11
17785;BME280;9016;53.582;10.062;2024-02-23T05:06:50;98675.91;;;7.47;74.42
17785;BME280;9016;53.582;10.062;2024-02-23T05:09:18;98669.41;;;7.40;74.56
17785;BME280;9016;53.582;10.062;2024-02-23T05:11:48;98677.72;;;7.35;74.76
17785;BME280;9016;53.582;10.062;2024-02-23T05:14:16;98678.34;;;7.28;74.24
17785;BME280;9016;53.582;10.062;2024-02-23T05:16:44;98678.56;;;7.36;74.12
17785;BME280;9016;53.582;10.062;2024-02-23T05:19:12;98686.75;;;7.33;74.84
17785;BME280;9016;53.582;10.062;2024-02-23T05:21:40;98685.44;;;7.27;74.80
17785;BME280;9016;53.582;10.062;2024-02-23T05:24:08;98675.69;;;7.28;75.24
17785;BME280;9016;53.582;10.062;2024-02-23T05:26:36;98692.91;;;7.22;74.92
17785;BME280;9016;53.582;10.062;2024-02-23T05:29:05;98701.69;;;7.34;74.71
17785;BME280;9016;53.582;10.062;2024-02-23T05:31:45;98716.25;;;7.28;74.35
17785;BME280;9016;53.582;10.062;2024-02-23T05:34:14;98704.22;;;7.24;74.04
17785;BME280;9016;53.582;10.062;2024-02-23T05:36:42;98708.66;;;7.24;74.28
17785;BME280;9016;53.582;10.062;2024-02-23T05:39:10;98714.44;;;7.40;73.70
17785;BME280;9016;53.582;10.062;2024-02-23T05:41:39;98722.88;;;7.45;72.93
17785;BME280;9016;53.582;10.062;2024-02-23T05:44:09;98727.59;;;7.30;73.12
17785;BME280;9016;53.582;10.062;2024-02-23T05:46:39;98748.88;;;7.18;73.61
17785;BME280;9016;53.582;10.062;2024-02-23T05:49:07;98744.28;;;7.20;73.36
17785;BME280;9016;53.582;10.062;2024-02-23T05:51:36;98727.59;;;7.19;73.27
17785;BME280;9016;53.582;10.062;2024-02-23T05:54:04;98729.63;;;7.16;73.28
17785;BME280;9016;53.582;10.062;2024-02-23T05:56:32;98738.91;;;7.21;72.96
17785;BME280;9016;53.582;10.062;2024-02-23T05:59:00;98746.00;;;7.32;72.40
17785;BME280;9016;53.582;10.062;2024-02-23T06:01:30;98757.31;;;7.34;72.34
17785;BME280;9016;53.582;10.062;2024-02-23T06:03:58;98768.50;;;7.37;72.46
17785;BME280;9016;53.582;10.062;2024-02-23T06:06:26;98773.44;;;7.42;71.16
17785;BME280;9016;53.582;10.062;2024-02-23T06:08:54;98783.09;;;7.32;71.96
17785;BME280;9016;53.582;10.062;2024-02-23T06:11:22;98785.25;;;7.27;72.35
17785;BME280;9016;53.582;10.062;2024-02-23T06:13:50;98798.25;;;7.30;72.20
17785;BME280;9016;53.582;10.062;2024-02-23T06:16:18;98796.81;;;7.37;71.83
17785;BME280;9016;53.582;10.062;2024-02-23T06:18:47;98794.41;;;7.34;71.98
17785;BME280;9016;53.582;10.062;2024-02-23T06:21:17;98800.31;;;7.37;70.88
17785;BME280;9016;53.582;10.062;2024-02-23T06:23:45;98802.97;;;7.37;71.67
17785;BME280;9016;53.582;10.062;2024-02-23T06:26:13;98816.81;;;7.41;71.25
17785;BME280;9016;53.582;10.062;2024-02-23T06:28:42;98827.88;;;7.35;71.15
17785;BME280;9016;53.582;10.062;2024-02-23T06:31:10;98834.34;;;7.31;71.15
17785;BME280;9016;53.582;10.062;2024-02-23T06:33:38;98844.72;;;7.34;71.30
17785;BME280;9016;53.582;10.062;2024-02-23T06:36:09;98844.50;;;7.37;71.09
17785;BME280;9016;53.582;10.062;2024-02-23T06:38:37;98839.78;;;7.29;71.14
17785;BME280;9016;53.582;10.062;2024-02-23T06:41:05;98854.69;;;7.19;70.83
17785;BME280;9016;53.582;10.062;2024-02-23T06:43:35;98860.00;;;7.19;71.34
17785;BME280;9016;53.582;10.062;2024-02-23T06:46:05;98862.66;;;7.19;71.54
17785;BME280;9016;53.582;10.062;2024-02-23T06:48:33;98880.81;;;7.24;71.12
17785;BME280;9016;53.582;10.062;2024-02-23T06:51:02;98883.00;;;7.30;71.42
17785;BME280;9016;53.582;10.062;2024-02-23T06:53:31;98879.75;;;7.26;71.40
17785;BME280;9016;53.582;10.062;2024-02-23T06:55:59;98884.50;;;7.45;70.86
17785;BME280;9016;53.582;10.062;2024-02-23T06:58:27;98896.63;;;7.47;70.98
17785;BME280;9016;53.582;10.062;2024-02-23T07:00:56;98897.50;;;7.48;71.67
17785;BME280;9016;53.582;10.062;2024-02-23T07:03:24;98894.13;;;7.46;71.31
17785;BME280;9016;53.582;10.062;2024-02-23T07:05:52;98894.59;;;7.51;71.65
17785;BME280;9016;53.582;10.062;2024-02-23T07:08:20;98922.41;;;7.45;71.33
17785;BME280;9016;53.582;10.062;2024-02-23T07:10:49;98917.38;;;7.53;71.75
17785;BME280;9016;53.582;10.062;2024-02-23T07:13:17;98926.38;;;7.51;72.56
17785;BME280;9016;53.582;10.062;2024-02-23T07:15:46;98924.25;;;7.56;71.96
17785;BME280;9016;53.582;10.062;2024-02-23T07:18:14;98929.19;;;7.71;70.83
17785;BME280;9016;53.582;10.062;2024-02-23T07:20:42;98937.78;;;7.86;71.18
17785;BME280;9016;53.582;10.062;2024-02-23T07:23:10;98932.72;;;7.83;71.00
17785;BME280;9016;53.582;10.062;2024-02-23T07:25:38;98935.38;;;7.83;70.77
17785;BME280;9016;53.582;10.062;2024-02-23T07:28:09;98929.34;;;7.81;69.85
17785;BME280;9016;53.582;10.062;2024-02-23T07:30:36;98935.13;;;7.97;70.07
17785;BME280;9016;53.582;10.062;2024-02-23T07:33:04;98941.16;;;7.88;69.74
17785;BME280;9016;53.582;10.062;2024-02-23T07:35:33;98940.66;;;7.83;71.35
17785;BME280;9016;53.582;10.062;2024-02-23T07:38:01;98925.03;;;7.80;70.48
17785;BME280;9016;53.582;10.062;2024-02-23T07:40:29;98949.34;;;7.74;70.59
17785;BME280;9016;53.582;10.062;2024-02-23T07:42:58;98945.25;;;7.81;70.27
17785;BME280;9016;53.582;10.062;2024-02-23T07:45:27;98952.75;;;7.98;70.34
17785;BME280;9016;53.582;10.062;2024-02-23T07:47:55;98943.34;;;8.16;70.23
17785;BME280;9016;53.582;10.062;2024-02-23T07:50:24;98948.63;;;8.05;69.83
17785;BME280;9016;53.582;10.062;2024-02-23T07:52:51;98958.78;;;8.11;69.49
17785;BME280;9016;53.582;10.062;2024-02-23T07:55:19;98956.84;;;8.13;69.73
17785;BME280;9016;53.582;10.062;2024-02-23T07:57:48;98954.53;;;8.09;69.00
17785;BME280;9016;53.582;10.062;2024-02-23T08:00:17;98951.03;;;7.86;69.92
17785;BME280;9016;53.582;10.062;2024-02-23T08:02:46;98955.84;;;7.81;68.64
17785;BME280;9016;53.582;10.062;2024-02-23T08:05:14;98971.88;;;7.79;68.89
17785;BME280;9016;53.582;10.062;2024-02-23T08:07:42;98958.91;;;7.98;68.65
17785;BME280;9016;53.582;10.062;2024-02-23T08:10:10;98963.69;;;8.16;68.71
17785;BME280;9016;53.582;10.062;2024-02-23T08:12:39;98975.34;;;8.26;67.83
17785;BME280;9016;53.582;10.062;2024-02-23T08:15:09;98983.00;;;8.07;67.25
17785;BME280;9016;53.582;10.062;2024-02-23T08:17:37;98980.22;;;8.08;67.37
17785;BME280;9016;53.582;10.062;2024-02-23T08:20:08;98987.34;;;8.08;67.07
17785;BME280;9016;53.582;10.062;2024-02-23T08:22:36;98990.00;;;8.08;66.57
17785;BME280;9016;53.582;10.062;2024-02-23T08:25:04;98995.78;;;8.24;66.52
17785;BME280;9016;53.582;10.062;2024-02-23T08:27:32;98991.81;;;8.18;66.80
17785;BME280;9016;53.582;10.062;2024-02-23T08:30:00;99001.47;;;8.30;65.73
17785;BME280;9016;53.582;10.062;2024-02-23T08:32:28;99014.28;;;8.25;65.18
17785;BME280;9016;53.582;10.062;2024-02-23T08:34:56;99013.97;;;8.17;64.84
17785;BME280;9016;53.582;10.062;2024-02-23T08:37:28;99016.66;;;8.28;65.49
17785;BME280;9016;53.582;10.062;2024-02-23T08:39:55;99027.53;;;8.36;64.38
17785;BME280;9016;53.582;10.062;2024-02-23T08:42:24;99016.31;;;8.66;64.93
17785;BME280;9016;53.582;10.062;2024-02-23T08:44:51;99027.78;;;8.66;64.40
17785;BME280;9016;53.582;10.062;2024-02-23T08:47:21;99028.63;;;8.78;62.47
17785;BME280;9016;53.582;10.062;2024-02-23T08:49:49;99023.66;;;8.84;62.94
17785;BME280;9016;53.582;10.062;2024-02-23T08:52:17;99031.28;;;9.21;63.17
17785;BME280;9016;53.582;10.062;2024-02-23T08:54:47;99047.38;;;9.08;62.26
17785;BME280;9016;53.582;10.062;2024-02-23T08:57:14;99032.47;;;8.85;62.97
17785;BME280;9016;53.582;10.062;2024-02-23T08:59:46;99041.75;;;9.02;62.02
17785;BME280;9016;53.582;10.062;2024-02-23T09:02:14;99030.25;;;9.01;62.10
17785;BME280;9016;53.582;10.062;2024-02-23T09:04:42;99043.72;;;8.77;61.81
17785;BME280;9016;53.582;10.062;2024-02-23T09:07:11;99036.63;;;9.10;61.49
17785;BME280;9016;53.582;10.062;2024-02-23T09:09:40;99052.09;;;9.16;61.91
17785;BME280;9016;53.582;10.062;2024-02-23T09:12:09;99067.38;;;9.34;61.41
17785;BME280;9016;53.582;10.062;2024-02-23T09:14:38;99059.69;;;9.20;60.82
17785;BME280;9016;53.582;10.062;2024-02-23T09:17:08;99055.22;;;9.10;61.08
17785;BME280;9016;53.582;10.062;2024-02-23T09:19:36;99069.53;;;9.40;60.78
17785;BME280;9016;53.582;10.062;2024-02-23T09:22:04;99076.78;;;9.38;60.81
17785;BME280;9016;53.582;10.062;2024-02-23T09:24:34;99069.19;;;9.34;60.29
17785;BME280;9016;53.582;10.062;2024-02-23T09:27:04;99070.88;;;9.35;59.71
17785;BME280;9016;53.582;10.062;2024-02-23T09:29:33;99081.16;;;9.28;59.88
17785;BME280;9016;53.582;10.062;2024-02-23T09:32:01;99076.13;;;9.14;60.21
17785;BME280;9016;53.582;10.062;2024-02-23T09:34:29;99085.03;;;9.24;59.60
17785;BME280;9016;53.582;10.062;2024-02-23T09:36:57;99092.19;;;9.24;59.59
17785;BME280;9016;53.582;10.062;2024-02-23T09:39:25;99094.41;;;9.39;60.35
17785;BME280;9016;53.582;10.062;2024-02-23T09:41:56;99098.97;;;9.48;59.23
17785;BME280;9016;53.582;10.062;2024-02-23T09:44:26;99101.66;;;9.37;59.21
17785;BME280;9016;53.582;10.062;2024-02-23T09:47:01;99117.72;;;9.47;59.32
17785;BME280;9016;53.582;10.062;2024-02-23T09:49:37;99112.19;;;9.70;59.06
17785;BME280;9016;53.582;10.062;2024-02-23T09:52:07;99125.59;;;9.80;57.70
17785;BME280;9016;53.582;10.062;2024-02-23T09:54:36;99121.78;;;9.93;57.66
17785;BME280;9016;53.582;10.062;2024-02-23T09:57:07;99140.28;;;10.27;57.44
17785;BME280;9016;53.582;10.062;2024-02-23T09:59:36;99147.41;;;10.26;57.21
17785;BME280;9016;53.582;10.062;2024-02-23T10:02:08;99139.00;;;10.21;57.26
17785;BME280;9016;53.582;10.062;2024-02-23T10:04:38;99138.13;;;10.21;57.15
17785;BME280;9016;53.582;10.062;2024-02-23T10:07:07;99162.66;;;9.92;57.05
17785;BME280;9016;53.582;10.062;2024-02-23T10:09:35;99165.41;;;10.02;57.52
17785;BME280;9016;53.582;10.062;2024-02-23T10:12:04;99157.34;;;10.24;56.85
17785;BME280;9016;53.582;10.062;2024-02-23T10:14:32;99162.56;;;10.46;56.12
17785;BME280;9016;53.582;10.062;2024-02-23T10:17:00;99191.88;;;10.15;55.65
17785;BME280;9016;53.582;10.062;2024-02-23T10:19:30;99178.38;;;9.95;56.68
17785;BME280;9016;53.582;10.062;2024-02-23T10:21:58;99180.06;;;9.96;56.70
17785;BME280;9016;53.582;10.062;2024-02-23T10:24:26;99176.75;;;10.15;56.71
17785;BME280;9016;53.582;10.062;2024-02-23T10:26:54;99177.09;;;10.22;57.48
17785;BME280;9016;53.582;10.062;2024-02-23T10:29:23;99185.81;;;10.13;56.38
17785;BME280;9016;53.582;10.062;2024-02-23T10:31:51;99190.66;;;10.19;57.06
17785;BME280;9016;53.582;10.062;2024-02-23T10:34:20;99194.31;;;10.38;56.32
17785;BME280;9016;53.582;10.062;2024-02-23T10:36:49;99191.06;;;10.35;55.21
17785;BME280;9016;53.582;10.062;2024-02-23T10:39:18;99193.25;;;10.30;55.61
17785;BME280;9016;53.582;10.062;2024-02-23T10:41:47;99201.44;;;10.06;54.74
17785;BME280;9016;53.582;10.062;2024-02-23T10:44:20;99208.00;;;9.91;55.23
17785;BME280;9016;53.582;10.062;2024-02-23T10:46:50;99199.84;;;10.15;54.73
17785;BME280;9016;53.582;10.062;2024-02-23T10:49:18;99195.28;;;10.37;54.41
17785;BME280;9016;53.582;10.062;2024-02-23T10:51:51;99198.22;;;10.55;52.98
17785;BME280;9016;53.582;10.062;2024-02-23T10:54:19;99204.50;;;10.54;52.89
17785;BME280;9016;53.582;10.062;2024-02-23T10:56:50;99211.59;;;10.44;54.02
17785;BME280;9016;53.582;10.062;2024-02-23T10:59:19;99219.19;;;10.48;53.82
17785;BME280;9016;53.582;10.062;2024-02-23T11:01:51;99209.03;;;10.42;54.36
17785;BME280;9016;53.582;10.062;2024-02-23T11:04:21;99213.41;;;10.43;54.34
17785;BME280;9016;53.582;10.062;2024-02-23T11:06:52;99211.06;;;10.50;53.63
17785;BME280;9016;53.582;10.062;2024-02-23T11:09:23;99213.28;;;10.65;54.01
17785;BME280;9016;53.582;10.062;2024-02-23T11:11:56;99213.81;;;10.80;53.26
17785;BME280;9016;53.582;10.062;2024-02-23T11:14:31;99213.88;;;10.89;52.33
17785;BME280;9016;53.582;10.062;2024-02-23T11:17:00;99213.94;;;11.09;53.34
17785;BME280;9016;53.582;10.062;2024-02-23T11:19:35;99207.81;;;10.87;51.65
17785;BME280;9016;53.582;10.062;2024-02-23T11:22:09;99213.75;;;10.70;52.13
17785;BME280;9016;53.582;10.062;2024-02-23T11:24:49;99221.72;;;10.50;53.29
17785;BME280;9016;53.582;10.062;2024-02-23T11:27:24;99219.50;;;10.75;53.54
17785;BME280;9016;53.582;10.062;2024-02-23T11:29:59;99222.38;;;10.83;52.90
17785;BME280;9016;53.582;10.062;2024-02-23T11:32:36;99218.63;;;10.86;52.97
17785;BME280;9016;53.582;10.062;2024-02-23T11:35:07;99219.44;;;10.86;53.21
17785;BME280;9016;53.582;10.062;2024-02-23T11:37:47;99215.81;;;10.87;53.37
17785;BME280;9016;53.582;10.062;2024-02-23T11:40:17;99209.41;;;10.90;52.73
17785;BME280;9016;53.582;10.062;2024-02-23T11:42:46;99211.69;;;11.04;52.88
17785;BME280;9016;53.582;10.062;2024-02-23T11:45:15;99202.50;;;10.87;53.45
17785;BME280;9016;53.582;10.062;2024-02-23T11:47:43;99199.97;;;11.16;53.06
17785;BME280;9016;53.582;10.062;2024-02-23T11:50:14;99200.19;;;11.34;52.51
17785;BME280;9016;53.582;10.062;2024-02-23T11:52:44;99196.91;;;11.51;52.67
17785;BME280;9016;53.582;10.062;2024-02-23T11:55:12;99200.06;;;11.35;51.94
17785;BME280;9016;53.582;10.062;2024-02-23T11:57:45;99195.06;;;11.51;52.36
17785;BME280;9016;53.582;10.062;2024-02-23T12:00:14;99201.22;;;11.52;51.98
17785;BME280;9016;53.582;10.062;2024-02-23T12:02:43;99190.00;;;11.18;51.41
17785;BME280;9016;53.582;10.062;2024-02-23T12:05:11;99199.09;;;11.06;51.00
17785;BME280;9016;53.582;10.062;2024-02-23T12:07:40;99193.63;;;11.08;50.86
17785;BME280;9016;53.582;10.062;2024-02-23T12:10:14;99198.69;;;11.41;51.36
17785;BME280;9016;53.582;10.062;2024-02-23T12:12:42;99204.00;;;11.41;50.56
17785;BME280;9016;53.582;10.062;2024-02-23T12:15:10;99190.16;;;11.17;50.41
17785;BME280;9016;53.582;10.062;2024-02-23T12:17:46;99198.31;;;10.94;50.92
17785;BME280;9016;53.582;10.062;2024-02-23T12:20:15;99206.84;;;10.88;50.98
17785;BME280;9016;53.582;10.062;2024-02-23T12:22:44;99199.84;;;10.87;51.02
17785;BME280;9016;53.582;10.062;2024-02-23T12:25:14;99205.53;;;10.83;51.25
17785;BME280;9016;53.582;10.062;2024-02-23T12:27:42;99207.97;;;10.86;50.93
17785;BME280;9016;53.582;10.062;2024-02-23T12:30:13;99205.28;;;10.86;50.68
17785;BME280;9016;53.582;10.062;2024-02-23T12:32:42;99208.75;;;10.77;50.37
17785;BME280;9016;53.582;10.062;2024-02-23T12:35:10;99214.00;;;10.67;51.25
17785;BME280;9016;53.582;10.062;2024-02-23T12:37:40;99212.78;;;10.71;51.04
17785;BME280;9016;53.582;10.062;2024-02-23T12:40:11;99211.59;;;10.64;50.89
17785;BME280;9016;53.582;10.062;2024-02-23T12:42:41;99219.84;;;10.61;49.82
17785;BME280;9016;53.582;10.062;2024-02-23T12:45:09;99213.81;;;10.80;49.91
17785;BME280;9016;53.582;10.062;2024-02-23T12:47:37;99210.47;;;11.08;49.65
17785;BME280;9016;53.582;10.062;2024-02-23T12:50:06;99217.75;;;11.06;49.19
17785;BME280;9016;53.582;10.062;2024-02-23T12:52:36;99207.22;;;11.05;48.78
17785;BME280;9016;53.582;10.062;2024-02-23T12:55:05;99208.34;;;11.32;49.46
17785;BME280;9016;53.582;10.062;2024-02-23T12:57:33;99214.72;;;11.20;49.17
17785;BME280;9016;53.582;10.062;2024-02-23T13:00:02;99200.34;;;11.42;49.26
17785;BME280;9016;53.582;10.062;2024-02-23T13:02:31;99215.44;;;11.22;48.66
17785;BME280;9016;53.582;10.062;2024-02-23T13:04:59;99215.88;;;11.27;48.98
17785;BME280;9016;53.582;10.062;2024-02-23T13:07:28;99226.09;;;11.22;48.72
17785;BME280;9016;53.582;10.062;2024-02-23T13:09:57;99225.00;;;11.25;48.91
17785;BME280;9016;53.582;10.062;2024-02-23T13:12:25;99220.91;;;11.21;48.72
17785;BME280;9016;53.582;10.062;2024-02-23T13:14:53;99245.34;;;11.26;49.69
17785;BME280;9016;53.582;10.062;2024-02-23T13:17:22;99239.09;;;11.46;49.12